Time;durP1;ratioP1;P1;durP2;ratioP2;P2;SDS_P1;SDS_P2;PMS_P1;PMS_P2;Temp;Humidity;BMP_temperature;BMP_pressure;BME280_temperature;BME280_humidity;BME280_pressure;Samples;Min_cycle;Max_cycle;Signal;HPM_P1;HPM_P2
2021/04/19 00:00:18;;;;;;;35.08;23.25;;;230.70;2252.80;;;;;;4774961;30;20077;-83
2021/04/19 00:02:43;;;;;;;35.40;25.38;;;230.70;2252.80;;;;;;4775127;30;20433;-83
2021/04/19 00:05:18;;;;;;;31.40;22.25;;;230.50;2252.80;;;;;;4791137;30;20039;-83
2021/04/19 00:07:44;;;;;;;32.42;22.75;;;230.40;2252.80;;;;;;4774848;30;20066;-83
2021/04/19 00:10:11;;;;;;;35.05;23.58;;;230.50;2252.80;;;;;;4775496;30;20031;-83
2021/04/19 00:12:36;;;;;;;33.10;23.50;;;230.40;2252.80;;;;;;4775340;30;20130;-82
2021/04/19 00:15:07;;;;;;;30.02;21.30;;;230.40;2252.80;;;;;;4781495;30;20511;-83
2021/04/19 00:17:34;;;;;;;35.03;24.35;;;230.50;2252.80;;;;;;4789402;30;20077;-83
2021/04/19 00:20:00;;;;;;;31.25;22.10;;;230.50;2252.80;;;;;;4789201;30;20047;-83
2021/04/19 00:22:26;;;;;;;34.53;22.90;;;230.50;2252.80;;;;;;4789169;30;20038;-83
2021/04/19 00:24:51;;;;;;;29.90;22.67;;;230.50;2252.80;;;;;;4789201;30;20401;-83
2021/04/19 00:27:17;;;;;;;35.75;23.17;;;230.50;2252.80;;;;;;4789115;30;20035;-82
2021/04/19 00:29:43;;;;;;;34.20;21.52;;;230.60;2252.80;;;;;;4789498;29;20519;-83
2021/04/19 00:32:09;;;;;;;33.47;22.60;;;230.50;2252.80;;;;;;4789083;30;20441;-83
2021/04/19 00:34:35;;;;;;;32.35;24.13;;;230.60;2252.80;;;;;;4788547;30;20043;-83
2021/04/19 00:37:01;;;;;;;33.58;23.23;;;230.70;2252.80;;;;;;4789485;30;20039;-84
2021/04/19 00:39:26;;;;;;;33.75;24.40;;;230.70;2252.80;;;;;;4789037;30;20047;-84
2021/04/19 00:41:53;;;;;;;33.13;23.70;;;230.70;2252.80;;;;;;4789049;30;20043;-83
2021/04/19 00:44:18;;;;;;;38.17;23.90;;;230.80;2252.80;;;;;;4790165;30;20047;-83
2021/04/19 00:46:47;;;;;;;36.80;26.23;;;230.70;2252.80;;;;;;4790345;30;20067;-82
2021/04/19 00:49:14;;;;;;;44.80;28.48;;;230.70;2252.80;;;;;;4788925;30;20049;-83
2021/04/19 00:51:40;;;;;;;38.63;27.00;;;230.70;2252.80;;;;;;4788360;30;20036;-84
2021/04/19 00:54:07;;;;;;;45.00;28.13;;;230.70;2252.80;;;;;;4787415;29;20042;-83
2021/04/19 00:56:33;;;;;;;39.00;27.63;;;230.70;2252.80;;;;;;4788672;29;20047;-83
2021/04/19 00:58:58;;;;;;;39.55;27.52;;;230.70;2252.80;;;;;;4788631;30;20050;-83
2021/04/19 01:01:26;;;;;;;40.45;28.52;;;230.80;2252.80;;;;;;4789659;30;20492;-83
2021/04/19 01:03:52;;;;;;;42.35;29.13;;;230.80;2252.80;;;;;;4788789;30;20031;-83
2021/04/19 01:06:18;;;;;;;36.17;26.67;;;230.80;2252.80;;;;;;4788625;30;20051;-83
2021/04/19 01:08:44;;;;;;;41.05;28.02;;;230.80;2252.80;;;;;;4788642;30;20039;-83
2021/04/19 01:11:09;;;;;;;41.92;29.98;;;230.80;2252.80;;;;;;4788324;30;20039;-82
2021/04/19 01:13:35;;;;;;;41.20;28.35;;;230.80;2252.80;;;;;;4788270;29;20039;-82
2021/04/19 01:16:02;;;;;;;45.15;30.98;;;230.80;2252.80;;;;;;4788676;30;20051;-84
2021/04/19 01:18:27;;;;;;;49.67;32.28;;;230.90;2252.80;;;;;;4788334;30;20039;-84
2021/04/19 01:20:53;;;;;;;49.75;31.67;;;230.80;2252.80;;;;;;4788494;30;20104;-84
2021/04/19 01:23:20;;;;;;;41.97;29.38;;;230.80;2252.80;;;;;;4788528;30;20070;-83
2021/04/19 01:25:47;;;;;;;40.20;27.83;;;230.80;2252.80;;;;;;4788166;30;20050;-83
2021/04/19 01:28:14;;;;;;;43.83;31.45;;;230.80;2252.80;;;;;;4788243;30;20039;-83
2021/04/19 01:30:45;;;;;;;47.10;30.42;;;230.90;2252.80;;;;;;4788373;30;20489;-84
2021/04/19 01:33:11;;;;;;;46.15;31.83;;;230.90;2252.80;;;;;;4788148;30;20063;-83
2021/04/19 01:35:37;;;;;;;45.80;30.67;;;230.90;2252.80;;;;;;4788446;30;20069;-83
2021/04/19 01:38:05;;;;;;;43.35;29.80;;;230.80;2252.80;;;;;;4788077;30;20079;-83
2021/04/19 01:40:31;;;;;;;37.45;26.42;;;230.80;2252.80;;;;;;4787740;30;20043;-83
2021/04/19 01:42:57;;;;;;;45.08;30.38;;;230.80;2252.80;;;;;;4788100;30;20104;-84
2021/04/19 01:45:23;;;;;;;47.58;32.03;;;230.80;2252.80;;;;;;4787983;30;20046;-84
2021/04/19 01:47:50;;;;;;;50.33;31.27;;;230.80;2252.80;;;;;;4787755;30;20036;-83
2021/04/19 01:50:24;;;;;;;42.75;27.38;;;230.90;2252.80;;;;;;4788034;30;20386;-82
2021/04/19 01:52:50;;;;;;;38.25;25.13;;;230.80;2252.80;;;;;;4787983;30;20122;-83
2021/04/19 01:55:19;;;;;;;39.25;28.13;;;230.80;2252.80;;;;;;4787862;30;20040;-84
2021/04/19 01:57:50;;;;;;;31.02;23.55;;;230.70;2252.80;;;;;;4788320;30;20071;-83
2021/04/19 02:00:17;;;;;;;36.22;23.27;;;230.80;2252.80;;;;;;4787863;30;20126;-83
2021/04/19 02:03:08;;;;;;;40.15;26.35;;;230.80;2252.80;;;;;;4787866;30;20042;-83
2021/04/19 02:05:54;;;;;;;42.88;27.17;;;230.80;2252.80;;;;;;4790863;29;20484;-83
2021/04/19 02:08:51;;;;;;;88.38;51.75;;;230.80;2252.80;;;;;;4791622;30;20396;-84
2021/04/19 02:11:44;;;;;;;54.65;36.83;;;230.70;2252.80;;;;;;4784404;30;20393;-83
2021/04/19 02:14:40;;;;;;;32.83;24.13;;;230.70;2252.80;;;;;;4791220;30;20058;-84
2021/04/19 02:17:19;;;;;;;33.30;23.15;;;230.50;2252.80;;;;;;4791600;30;20558;-83
2021/04/19 02:19:53;;;;;;;33.13;24.10;;;230.50;2252.80;;;;;;4792612;30;20051;-83
2021/04/19 02:22:25;;;;;;;30.10;22.33;;;230.50;2252.80;;;;;;4792304;29;20043;-84
2021/04/19 02:25:00;;;;;;;31.10;22.30;;;230.50;2252.80;;;;;;4791585;30;20043;-83
2021/04/19 02:27:35;;;;;;;34.20;21.58;;;230.50;2252.80;;;;;;4791206;30;20035;-83
2021/04/19 02:30:04;;;;;;;36.65;23.48;;;230.60;2252.80;;;;;;4791345;30;20043;-84
2021/04/19 02:32:34;;;;;;;34.80;24.52;;;230.50;2252.80;;;;;;4792304;29;20104;-83
2021/04/19 02:35:04;;;;;;;37.13;27.15;;;230.50;2252.80;;;;;;4791172;30;20063;-83
2021/04/19 02:37:35;;;;;;;40.72;26.20;;;230.40;2252.80;;;;;;4790532;30;20138;-83
2021/04/19 02:40:03;;;;;;;34.25;23.55;;;230.50;2252.80;;;;;;4790980;30;20142;-82
2021/04/19 02:42:32;;;;;;;35.10;23.45;;;230.50;2252.80;;;;;;4791381;30;20039;-83
2021/04/19 02:44:59;;;;;;;34.33;23.67;;;230.60;2252.80;;;;;;4791138;30;20039;-82
2021/04/19 02:47:25;;;;;;;30.98;22.45;;;230.50;2252.80;;;;;;4792288;29;20043;-83
2021/04/19 02:49:51;;;;;;;28.02;20.90;;;230.40;2252.80;;;;;;4791188;30;20532;-83
2021/04/19 02:52:17;;;;;;;31.58;20.98;;;230.40;2252.80;;;;;;4791065;29;20420;-83
2021/04/19 02:54:46;;;;;;;28.65;20.60;;;205.70;2252.80;;;;;;4790940;30;20431;-83
2021/04/19 02:57:27;;;;;;;32.42;21.13;;;205.70;2252.80;;;;;;4791253;30;20040;-83
2021/04/19 02:59:55;;;;;;;30.90;21.98;;;205.60;2252.80;;;;;;4790717;30;20047;-83
2021/04/19 03:02:28;;;;;;;32.05;20.70;;;205.70;2252.80;;;;;;4790697;30;20035;-83
2021/04/19 03:04:54;;;;;;;;;;;205.60;2252.80;;;;;;4791598;30;20043;-82
2021/04/19 03:07:24;;;;;;;26.38;18.42;;;205.70;2252.80;;;;;;4790947;30;20139;-83
2021/04/19 03:09:54;;;;;;;30.15;20.85;;;205.60;2252.80;;;;;;4790893;30;20046;-83
2021/04/19 03:12:26;;;;;;;28.35;20.35;;;205.50;2252.80;;;;;;4790828;30;20126;-82
2021/04/19 03:15:01;;;;;;;25.15;18.98;;;205.50;2252.80;;;;;;4790385;30;20055;-83
2021/04/19 03:17:28;;;;;;;26.65;20.00;;;205.50;2252.80;;;;;;4790075;30;20039;-84
2021/04/19 03:20:06;;;;;;;35.28;23.33;;;205.40;2252.80;;;;;;4790457;30;20054;-83
2021/04/19 03:22:35;;;;;;;33.10;22.23;;;205.50;2252.80;;;;;;4790622;30;20134;-84
2021/04/19 03:25:03;;;;;;;37.17;23.92;;;205.20;2252.80;;;;;;4790472;30;20083;-83
2021/04/19 03:27:32;;;;;;;34.28;24.13;;;205.30;2252.80;;;;;;4790325;30;20065;-83
2021/04/19 03:29:59;;;;;;;35.45;23.80;;;205.10;2252.80;;;;;;4790601;30;20043;-83
2021/04/19 03:32:31;;;;;;;58.10;32.88;;;205.20;2252.80;;;;;;4791247;29;20382;-84
2021/04/19 03:34:59;;;;;;;57.57;33.53;;;205.30;2252.80;;;;;;4790295;30;20107;-84
2021/04/19 03:37:30;;;;;;;47.83;30.92;;;205.40;2252.80;;;;;;4790203;30;20043;-83
2021/04/19 03:40:04;;;;;;;37.47;25.55;;;205.30;2252.80;;;;;;4790145;30;20079;-84
2021/04/19 03:42:33;;;;;;;37.33;25.13;;;205.30;2252.80;;;;;;4790064;30;20043;-82
2021/04/19 03:45:01;;;;;;;46.35;28.77;;;205.10;2252.80;;;;;;4790174;30;20493;-83
2021/04/19 03:47:29;;;;;;;42.23;26.30;;;205.10;2252.80;;;;;;4790113;30;20088;-83
2021/04/19 03:49:58;;;;;;;41.60;25.42;;;204.90;2252.80;;;;;;4790081;30;20132;-83
2021/04/19 03:52:30;;;;;;;45.45;27.98;;;204.90;2252.80;;;;;;4790846;29;20071;-84
2021/04/19 03:54:56;;;;;;;36.17;24.25;;;205.10;2252.80;;;;;;4789908;30;20043;-82
2021/04/19 03:57:24;;;;;;;31.38;24.65;;;205.20;2252.80;;;;;;4789695;30;20046;-84
2021/04/19 03:59:54;;;;;;;30.58;21.98;;;205.20;2252.80;;;;;;4790033;30;20047;-83
2021/04/19 04:02:22;;;;;;;28.30;20.55;;;205.20;2252.80;;;;;;4789688;30;20488;-84
2021/04/19 04:04:50;;;;;;;32.10;22.30;;;205.30;2252.80;;;;;;4789853;30;20404;-83
2021/04/19 04:07:17;;;;;;;32.97;23.33;;;205.50;2252.80;;;;;;4790185;30;20119;-82
2021/04/19 04:09:43;;;;;;;38.93;27.03;;;205.60;2252.80;;;;;;4791127;30;20058;-83
2021/04/19 04:12:10;;;;;;;42.90;29.55;;;205.50;2252.80;;;;;;4789811;30;20043;-84
2021/04/19 04:14:37;;;;;;;44.85;30.75;;;205.60;2252.80;;;;;;4787897;30;20056;-84
2021/04/19 04:17:03;;;;;;;41.83;29.17;;;205.60;2252.80;;;;;;4789727;30;20051;-84
2021/04/19 04:19:29;;;;;;;42.92;29.08;;;205.70;2252.80;;;;;;4789550;30;20101;-84
2021/04/19 04:21:56;;;;;;;38.65;26.63;;;205.70;2252.80;;;;;;4789708;29;20058;-84
2021/04/19 04:24:22;;;;;;;37.57;27.13;;;230.40;2252.80;;;;;;4789655;30;20098;-85
2021/04/19 04:26:49;;;;;;;38.80;26.15;;;230.40;2252.80;;;;;;4790645;29;20103;-84
2021/04/19 04:29:14;;;;;;;37.78;25.13;;;230.50;2252.80;;;;;;4789151;30;20129;-84
2021/04/19 04:31:40;;;;;;;39.80;26.55;;;230.50;2252.80;;;;;;4789426;30;20071;-84
2021/04/19 04:34:06;;;;;;;30.17;22.60;;;230.50;2252.80;;;;;;4789596;30;20044;-84
2021/04/19 04:36:31;;;;;;;31.15;22.02;;;230.50;2252.80;;;;;;4789312;30;20521;-83
2021/04/19 04:38:57;;;;;;;49.25;35.00;;;230.60;2252.80;;;;;;4789097;29;20043;-85
2021/04/19 04:41:23;;;;;;;46.53;35.20;;;230.60;2252.80;;;;;;4788422;29;20123;-84
2021/04/19 04:43:52;;;;;;;41.05;30.08;;;230.60;2252.80;;;;;;4788839;29;20069;-84
2021/04/19 04:46:27;;;;;;;37.67;26.80;;;230.60;2252.80;;;;;;4788544;29;20043;-84
2021/04/19 04:49:02;;;;;;;37.38;26.45;;;230.60;2252.80;;;;;;4788898;30;20516;-84
2021/04/19 04:51:30;;;;;;;36.30;26.33;;;230.60;2252.80;;;;;;4789132;30;20050;-84
2021/04/19 04:54:07;;;;;;;36.08;27.13;;;230.70;2252.80;;;;;;4799863;29;20112;-84
2021/04/19 04:56:35;;;;;;;32.90;24.60;;;230.70;2252.80;;;;;;4789006;30;20493;-84
2021/04/19 04:59:03;;;;;;;46.47;30.88;;;230.80;2252.80;;;;;;4788544;29;20051;-84
2021/04/19 05:01:31;;;;;;;65.65;43.60;;;230.80;2252.80;;;;;;4788638;30;20138;-83
2021/04/19 05:03:58;;;;;;;56.33;36.03;;;230.80;2252.80;;;;;;4788761;30;20062;-84
2021/04/19 05:06:26;;;;;;;80.93;52.78;;;230.80;2252.80;;;;;;4788838;29;20058;-85
2021/04/19 05:08:52;;;;;;;66.22;41.53;;;230.80;2252.80;;;;;;4788380;29;20047;-81
2021/04/19 05:11:18;;;;;;;51.20;35.42;;;230.80;2252.80;;;;;;4789340;30;20116;-83
2021/04/19 05:13:44;;;;;;;42.08;27.85;;;230.80;2252.80;;;;;;4788064;30;20150;-82
2021/04/19 05:16:10;;;;;;;35.60;26.95;;;230.70;2252.80;;;;;;4773596;30;20069;-83
2021/04/19 05:18:35;;;;;;;36.55;24.90;;;230.80;2252.80;;;;;;4770812;30;20048;-82
2021/04/19 05:21:01;;;;;;;38.35;28.05;;;230.80;2252.80;;;;;;4755946;30;20044;-83
2021/04/19 05:23:28;;;;;;;46.15;30.75;;;230.80;2252.80;;;;;;4755532;30;20402;-83
2021/04/19 05:25:54;;;;;;;43.78;29.27;;;230.90;2252.80;;;;;;4755667;30;20054;-83
2021/04/19 05:28:20;;;;;;;40.17;26.98;;;230.80;2252.80;;;;;;4755419;30;20051;-83
2021/04/19 05:30:49;;;;;;;39.33;27.00;;;230.90;2252.80;;;;;;4755286;30;20043;-82
2021/04/19 05:33:16;;;;;;;43.88;28.90;;;230.90;2252.80;;;;;;4755433;30;20096;-83
2021/04/19 05:35:43;;;;;;;43.20;30.38;;;231.00;2252.80;;;;;;4756899;30;20542;-83
2021/04/19 05:38:09;;;;;;;50.88;35.45;;;231.10;2252.80;;;;;;4788015;29;20043;-83
2021/04/19 05:40:36;;;;;;;50.47;32.55;;;231.10;2252.80;;;;;;4772503;30;20104;-83
2021/04/19 05:43:04;;;;;;;49.85;33.90;;;231.10;2252.80;;;;;;4788136;30;20071;-84
2021/04/19 05:45:31;;;;;;;50.72;32.45;;;231.10;2252.80;;;;;;4788125;30;20079;-82
2021/04/19 05:47:59;;;;;;;49.17;32.13;;;231.00;2252.80;;;;;;4787913;30;20054;-83
2021/04/19 05:50:26;;;;;;;50.88;35.40;;;231.00;2252.80;;;;;;4787836;30;20035;-83
2021/04/19 05:52:54;;;;;;;56.47;35.58;;;231.00;2252.80;;;;;;4787673;29;20035;-83
2021/04/19 05:55:23;;;;;;;53.80;35.92;;;231.10;2252.80;;;;;;4787860;30;20078;-83
2021/04/19 05:58:19;;;;;;;55.45;35.63;;;231.10;2252.80;;;;;;4787929;30;20489;-83
2021/04/19 06:01:07;;;;;;;50.00;30.77;;;231.10;2252.80;;;;;;4772695;30;20051;-83
2021/04/19 06:03:55;;;;;;;55.67;35.13;;;231.10;2252.80;;;;;;4787961;30;20389;-84
2021/04/19 06:06:35;;;;;;;61.67;38.03;;;231.20;2252.80;;;;;;4772971;30;20050;-83
2021/04/19 06:09:10;;;;;;;55.30;34.30;;;231.20;2252.80;;;;;;4787981;30;20044;-83
2021/04/19 06:11:46;;;;;;;46.63;32.90;;;231.30;2252.80;;;;;;4788947;30;20447;-83
2021/04/19 06:14:16;;;;;;;45.13;31.27;;;231.30;2252.80;;;;;;4787588;29;20051;-84
2021/04/19 06:16:42;;;;;;;42.90;30.05;;;231.30;2252.80;;;;;;4773025;30;20051;-83
2021/04/19 06:19:14;;;;;;;49.75;32.55;;;231.30;2252.80;;;;;;4787779;30;20079;-84
2021/04/19 06:21:41;;;;;;;42.65;28.30;;;256.00;2252.80;;;;;;4772852;30;20046;-84
2021/04/19 06:24:08;;;;;;;50.58;34.88;;;231.30;2252.80;;;;;;4772642;30;20058;-83
2021/04/19 06:26:35;;;;;;;50.33;34.92;;;231.30;2252.80;;;;;;4772524;30;20035;-83
2021/04/19 06:29:02;;;;;;;47.17;31.98;;;256.00;2252.80;;;;;;4772572;30;20462;-83
2021/04/19 06:32:13;;;;;;;50.00;32.53;;;231.20;2252.80;;;;;;4772949;30;20130;-83
2021/04/19 06:34:39;;;;;;;42.80;32.35;;;231.30;2252.80;;;;;;4772829;29;20055;-84
2021/04/19 06:37:14;;;;;;;49.80;35.25;;;256.00;2252.80;;;;;;4772295;29;20489;-84
2021/04/19 06:39:42;;;;;;;45.92;30.35;;;256.00;2252.80;;;;;;4772770;30;20072;-85
2021/04/19 06:42:10;;;;;;;50.47;34.70;;;231.30;2252.80;;;;;;4773036;30;20063;-83
2021/04/19 06:44:37;;;;;;;75.88;42.92;;;231.20;2252.80;;;;;;4772682;30;20043;-82
2021/04/19 06:47:05;;;;;;;46.13;32.95;;;231.20;2252.80;;;;;;4772663;30;20489;-79
2021/04/19 06:49:31;;;;;;;57.80;32.67;;;231.10;2252.80;;;;;;4766204;30;20166;-80
2021/04/19 06:51:58;;;;;;;54.25;36.35;;;231.00;2252.80;;;;;;4770376;30;20509;-82
2021/04/19 06:54:24;;;;;;;58.38;41.00;;;231.10;2252.80;;;;;;4772316;30;20040;-81
2021/04/19 06:56:51;;;;;;;62.08;39.40;;;231.20;2252.80;;;;;;4757043;30;20127;-79
2021/04/19 06:59:20;;;;;;;50.35;33.90;;;231.20;2252.80;;;;;;4772145;30;20190;-83
2021/04/19 07:01:54;;;;;;;47.28;31.55;;;231.20;2252.80;;;;;;4772361;30;20044;-83
2021/04/19 07:04:30;;;;;;;50.67;33.05;;;231.00;2252.80;;;;;;4772520;30;20047;-80
2021/04/19 07:06:58;;;;;;;53.30;36.08;;;231.00;2252.80;;;;;;4771699;30;20040;-81
2021/04/19 07:09:29;;;;;;;57.72;36.05;;;231.10;2252.80;;;;;;4772085;30;20040;-83
2021/04/19 07:12:17;;;;;;;50.72;32.35;;;231.20;2252.80;;;;;;4772377;30;20040;-81
2021/04/19 07:14:44;;;;;;;42.42;27.60;;;231.10;2252.80;;;;;;4776333;30;20490;-80
2021/04/19 07:17:10;;;;;;;46.60;29.30;;;231.00;2252.80;;;;;;4788545;30;20504;-81
2021/04/19 07:19:38;;;;;;;50.65;32.45;;;231.10;2252.80;;;;;;4789796;29;20051;-82
2021/04/19 07:22:05;;;;;;;36.70;25.95;;;231.30;2252.80;;;;;;4789524;29;20397;-81
2021/04/19 07:24:31;;;;;;;37.80;26.33;;;231.30;2252.80;;;;;;4789532;30;20101;-81
2021/04/19 07:26:58;;;;;;;40.58;28.50;;;256.00;2252.80;;;;;;4789387;29;20032;-81
2021/04/19 07:29:27;;;;;;;39.80;27.20;;;256.10;2252.80;;;;;;4789620;30;20054;-81
2021/04/19 07:31:55;;;;;;;41.15;28.23;;;256.10;2252.80;;;;;;4788703;29;20081;-80
2021/04/19 07:34:26;;;;;;;39.42;28.55;;;256.20;2252.80;;;;;;4775587;30;20409;-82
2021/04/19 07:36:59;;;;;;;52.67;33.45;;;256.30;2252.80;;;;;;4771785;30;20062;-81
2021/04/19 07:39:30;;;;;;;50.53;31.98;;;256.50;2252.80;;;;;;4775190;29;20039;-81
2021/04/19 07:41:57;;;;;;;37.65;24.88;;;256.50;2252.80;;;;;;4789436;30;20072;-81
2021/04/19 07:44:49;;;;;;;36.30;23.85;;;256.60;2252.80;;;;;;4790573;29;20043;-81
2021/04/19 07:47:33;;;;;;;33.65;23.70;;;256.80;2252.80;;;;;;4789026;30;20058;-80
2021/04/19 07:50:19;;;;;;;35.35;23.42;;;256.70;2252.80;;;;;;4786951;30;20050;-82
2021/04/19 07:53:07;;;;;;;34.05;21.40;;;256.80;2252.80;;;;;;4786716;29;20066;-82
2021/04/19 07:55:37;;;;;;;38.78;25.52;;;281.70;2278.40;;;;;;4785723;30;20080;-82
2021/04/19 07:58:05;;;;;;;32.88;22.60;;;281.90;2278.40;;;;;;4789736;30;20401;-83
2021/04/19 08:00:51;;;;;;;38.15;23.17;;;256.80;2252.80;;;;;;4785727;30;20565;-82
2021/04/19 08:03:20;;;;;;;44.28;27.45;;;256.90;2252.80;;;;;;4786412;29;20519;-83
2021/04/19 08:05:51;;;;;;;39.13;26.77;;;256.90;2252.80;;;;;;4786757;29;20070;-84
2021/04/19 08:08:35;;;;;;;38.65;27.48;;;281.90;2278.40;;;;;;4786289;29;20036;-84
2021/04/19 08:11:15;;;;;;;42.08;28.98;;;282.20;2252.80;;;;;;4786611;30;20036;-83
2021/04/19 08:13:42;;;;;;;36.65;24.50;;;282.30;2278.40;;;;;;4786240;30;20104;-83
2021/04/19 08:16:23;;;;;;;35.35;24.10;;;307.30;2304.00;;;;;;4772621;30;20052;-83
2021/04/19 08:18:49;;;;;;;37.70;26.15;;;307.40;2252.80;;;;;;4786238;30;20047;-83
2021/04/19 08:21:28;;;;;;;36.38;24.48;;;307.50;2252.80;;;;;;4786047;30;20039;-84
2021/04/19 08:23:53;;;;;;;35.05;24.48;;;307.60;2227.20;;;;;;4786341;29;20074;-84
2021/04/19 08:26:19;;;;;;;34.60;24.92;;;307.60;2176.00;;;;;;4785954;30;20043;-84
2021/04/19 08:28:47;;;;;;;35.75;23.33;;;307.50;2176.00;;;;;;4786336;30;20036;-84
2021/04/19 08:31:15;;;;;;;44.42;29.25;;;307.60;2304.00;;;;;;4786786;29;20043;-86
2021/04/19 08:33:45;;;;;;;38.95;26.42;;;333.00;2124.80;;;;;;4786475;30;20040;-83
2021/04/19 08:36:14;;;;;;;33.95;24.77;;;308.10;2201.60;;;;;;4786816;30;20123;-84
2021/04/19 08:38:41;;;;;;;31.88;25.20;;;332.90;2201.60;;;;;;4772521;30;20032;-84
2021/04/19 08:41:08;;;;;;;36.22;23.73;;;308.10;2176.00;;;;;;4786283;30;20044;-84
2021/04/19 08:43:35;;;;;;;35.20;24.02;;;308.10;2124.80;;;;;;4786287;30;20035;-83
2021/04/19 08:46:03;;;;;;;33.53;24.40;;;308.00;2073.60;;;;;;4771290;30;20043;-84
2021/04/19 08:48:29;;;;;;;34.53;26.00;;;332.90;2176.00;;;;;;4786230;30;20036;-84
2021/04/19 08:50:54;;;;;;;32.78;22.73;;;333.00;2150.40;;;;;;4772351;30;20079;-82
2021/04/19 08:53:21;;;;;;;31.40;23.58;;;332.90;2124.80;;;;;;4772597;30;20080;-84
2021/04/19 08:55:49;;;;;;;33.92;22.77;;;333.10;2099.20;;;;;;4786003;30;20086;-83
2021/04/19 08:58:17;;;;;;;37.67;23.45;;;333.20;2073.60;;;;;;4772427;30;20486;-83
2021/04/19 09:00:58;;;;;;;33.63;24.60;;;333.40;2073.60;;;;;;4785864;30;20075;-84
2021/04/19 09:03:24;;;;;;;36.88;22.73;;;333.60;2022.40;;;;;;4771965;30;20118;-83
2021/04/19 09:05:50;;;;;;;51.95;32.35;;;333.30;2048.00;;;;;;4785693;30;20123;-84
2021/04/19 09:08:18;;;;;;;40.35;27.00;;;333.20;2176.00;;;;;;4785447;29;20032;-83
2021/04/19 09:11:10;;;;;;;69.93;47.13;;;333.30;2022.40;;;;;;4785689;29;20040;-82
2021/04/19 09:13:42;;;;;;;70.78;45.10;;;333.70;2022.40;;;;;;4784946;29;20059;-84
2021/04/19 09:16:22;;;;;;;40.33;24.95;;;358.50;1920.00;;;;;;4752742;30;20064;-84
2021/04/19 09:18:56;;;;;;;36.65;25.40;;;333.50;1894.40;;;;;;4752905;30;20562;-85
2021/04/19 09:21:42;;;;;;;41.08;27.55;;;333.70;1971.20;;;;;;4752625;30;20387;-85
2021/04/19 09:24:10;;;;;;;24.58;16.38;;;358.40;1920.00;;;;;;4738441;30;20047;-81
2021/04/19 09:27:01;;;;;;;21.92;14.75;;;358.40;1894.40;;;;;;4752886;30;20120;-82
2021/04/19 09:29:27;;;;;;;52.67;29.25;;;358.70;1894.40;;;;;;4752888;30;20512;-82
2021/04/19 09:32:07;;;;;;;26.85;18.75;;;358.90;1843.20;;;;;;4738278;30;20103;-83
2021/04/19 09:34:40;;;;;;;20.48;15.95;;;359.00;1817.60;;;;;;4752975;30;20578;-84
2021/04/19 09:37:16;;;;;;;24.13;18.33;;;358.80;1792.00;;;;;;4752697;30;20040;-84
2021/04/19 09:39:49;;;;;;;24.92;16.52;;;333.70;1868.80;;;;;;4752728;30;20094;-84
2021/04/19 09:42:16;;;;;;;21.00;15.68;;;333.70;1817.60;;;;;;4738043;30;20036;-82
2021/04/19 09:44:53;;;;;;;16.48;12.68;;;333.40;1868.80;;;;;;4752324;30;20050;-84
2021/04/19 09:47:48;;;;;;;21.55;15.57;;;332.80;1843.20;;;;;;4752443;30;20055;-85
2021/04/19 09:50:16;;;;;;;17.45;12.48;;;333.00;1868.80;;;;;;4752661;30;20146;-84
2021/04/19 09:52:46;;;;;;;21.15;14.68;;;333.20;1766.40;;;;;;4752359;30;20044;-87
2021/04/19 09:55:13;;;;;;;20.92;15.48;;;333.10;1843.20;;;;;;4737906;30;20119;-85
2021/04/19 09:57:38;;;;;;;19.40;14.68;;;333.10;1817.60;;;;;;4752546;30;20040;-85
2021/04/19 10:00:06;;;;;;;22.30;14.05;;;333.00;1868.80;;;;;;4752716;30;20559;-86
2021/04/19 10:02:34;;;;;;;26.77;16.30;;;333.30;1843.20;;;;;;4752628;30;20033;-84
2021/04/19 10:05:01;;;;;;;28.27;15.90;;;333.70;1868.80;;;;;;4753726;30;20044;-83
2021/04/19 10:07:29;;;;;;;31.58;16.50;;;333.70;1894.40;;;;;;4752154;30;20048;-84
2021/04/19 10:09:55;;;;;;;20.70;15.65;;;333.40;1868.80;;;;;;4752060;30;20042;-82
2021/04/19 10:12:22;;;;;;;22.83;15.60;;;333.20;1792.00;;;;;;4752222;30;20040;-82
2021/04/19 10:14:48;;;;;;;26.27;19.55;;;332.90;1868.80;;;;;;4751952;30;20103;-86
2021/04/19 10:17:14;;;;;;;40.50;21.45;;;332.80;1945.60;;;;;;4752187;30;20080;-85
2021/04/19 10:19:40;;;;;;;24.15;18.85;;;333.30;2048.00;;;;;;4751955;30;20044;-85
2021/04/19 10:22:07;;;;;;;34.80;23.92;;;332.90;1920.00;;;;;;4751992;30;20047;-82
2021/04/19 10:24:36;;;;;;;26.73;19.20;;;332.80;1945.60;;;;;;4737651;30;20135;-82
2021/04/19 10:27:03;;;;;;;29.65;20.00;;;308.10;1920.00;;;;;;4756365;30;20170;-85
2021/04/19 10:29:29;;;;;;;24.90;18.35;;;308.10;1945.60;;;;;;4756920;30;20056;-84
2021/04/19 10:31:57;;;;;;;32.03;21.40;;;308.00;1945.60;;;;;;4745917;30;20044;-84
2021/04/19 10:34:26;;;;;;;28.27;19.10;;;307.90;1945.60;;;;;;4761274;30;20040;-85
2021/04/19 10:37:04;;;;;;;73.78;51.22;;;307.90;1971.20;;;;;;4761375;30;20189;-86
2021/04/19 10:39:35;;;;;;;46.20;29.60;;;308.00;1996.80;;;;;;4760180;30;20125;-86
2021/04/19 10:42:05;;;;;;;83.97;56.25;;;307.90;1996.80;;;;;;4757070;30;20043;-84
2021/04/19 10:44:42;;;;;;;23.10;17.75;;;332.80;1996.80;;;;;;4756032;30;20064;-83
2021/04/19 10:47:11;;;;;;;37.88;27.33;;;332.80;2022.40;;;;;;4755211;30;20054;-83
2021/04/19 10:49:37;;;;;;;35.28;23.73;;;308.10;1894.40;;;;;;4755065;30;20123;-84
2021/04/19 10:52:09;;;;;;;32.05;25.33;;;307.80;1945.60;;;;;;4754530;30;20050;-84
2021/04/19 10:54:43;;;;;;;35.28;25.15;;;307.70;1971.20;;;;;;4755499;30;20024;-86
2021/04/19 10:57:23;;;;;;;39.53;26.67;;;307.80;1945.60;;;;;;4755550;30;20486;-86
2021/04/19 10:59:54;;;;;;;41.85;21.80;;;307.70;1971.20;;;;;;4740459;30;20060;-85
2021/04/19 11:02:24;;;;;;;51.50;26.00;;;307.60;1996.80;;;;;;4755849;30;20044;-83
2021/04/19 11:04:50;;;;;;;28.17;18.23;;;307.80;2022.40;;;;;;4755155;30;20082;-86
2021/04/19 11:07:27;;;;;;;42.80;25.17;;;307.80;1971.20;;;;;;4755208;30;20036;-84
2021/04/19 11:10:14;;;;;;;26.30;20.45;;;307.80;1996.80;;;;;;4754876;30;20076;-85
2021/04/19 11:12:40;;;;;;;31.73;16.27;;;307.60;2022.40;;;;;;4740038;30;20044;-80
2021/04/19 11:15:13;;;;;;;34.67;17.33;;;307.70;2022.40;;;;;;4754474;30;20106;-82
2021/04/19 11:17:39;;;;;;;530.63;62.03;;;307.80;1971.20;;;;;;4754749;30;20509;-84
2021/04/19 11:20:42;;;;;;;24.88;17.40;;;307.90;2048.00;;;;;;4755001;30;20059;-86
2021/04/19 11:23:27;;;;;;;72.22;19.65;;;308.10;1971.20;;;;;;4755081;30;20044;-85
2021/04/19 11:26:08;;;;;;;70.95;17.40;;;332.80;2048.00;;;;;;4755000;30;20078;-83
2021/04/19 11:28:43;;;;;;;43.88;14.57;;;332.80;2022.40;;;;;;4755946;30;20131;-85
2021/04/19 11:31:16;;;;;;;24.50;14.30;;;332.90;2022.40;;;;;;4742925;30;20068;-87
2021/04/19 11:33:43;;;;;;;21.08;15.10;;;332.80;1971.20;;;;;;4755869;30;20486;-89
2021/04/19 11:36:09;;;;;;;76.20;25.20;;;332.80;1996.80;;;;;;4756229;30;20493;-88
2021/04/19 11:38:40;;;;;;;69.63;23.20;;;333.00;2022.40;;;;;;4757457;30;20567;-92
2021/04/19 11:41:11;;;;;;;32.65;24.05;;;333.20;1971.20;;;;;;4759623;30;20561;-91
2021/04/19 11:43:38;;;;;;;48.67;23.38;;;333.20;1920.00;;;;;;4757194;30;20127;-85
2021/04/19 11:46:12;;;;;;;34.03;18.55;;;333.20;1920.00;;;;;;4741375;30;20086;-88
2021/04/19 11:48:46;;;;;;;22.30;15.05;;;333.10;1894.40;;;;;;4755421;30;20549;-91
2021/04/19 11:51:15;;;;;;;52.67;17.75;;;332.90;1920.00;;;;;;4755152;30;20040;-88
2021/04/19 11:53:44;;;;;;;56.35;20.92;;;333.00;1894.40;;;;;;4755649;30;20523;-85
2021/04/19 11:56:12;;;;;;;56.78;20.27;;;332.90;1920.00;;;;;;4755350;30;20032;-87
2021/04/19 11:58:42;;;;;;;29.85;19.65;;;332.90;1945.60;;;;;;4755893;30;20046;-86
2021/04/19 12:01:08;;;;;;;31.05;17.02;;;333.00;1971.20;;;;;;4755601;30;20052;-92
2021/04/19 12:03:38;;;;;;;22.75;16.50;;;333.00;1971.20;;;;;;4755271;30;20063;-95
2021/04/19 12:06:04;;;;;;;83.22;21.80;;;332.90;1996.80;;;;;;4755827;30;20081;-90
2021/04/19 12:08:33;;;;;;;42.85;18.35;;;333.60;1945.60;;;;;;4754874;30;20409;-92
2021/04/19 12:10:59;;;;;;;27.65;16.63;;;333.50;1945.60;;;;;;4761209;30;20036;-90
2021/04/19 12:13:25;;;;;;;37.70;19.02;;;333.20;1971.20;;;;;;4763196;30;20033;-88